KMOP/MOP METAR and TAF weather

Enter ICAO airport designator
Station Type Date Time Source
KMOP METAR 2022/05/23 14:55 UTC NOAA

KMOP 231455Z AUTO 00000KT 10SM CLR 12/03 A3039 RMK AO2 T01210031


Station Type Date Time Source
KMOP Decoded METAR 2022/05/23 14:55 UTC NOAA

Mount Pleasant, Mount Pleasant Municipal Airport, MI, United States (KMOP) 43-37N 84-44W
May 23, 2022 - 10:55 AM EDT / 2022.05.23 1455 UTC
Wind: Calm:0
Visibility: 10 mile(s):0
Sky conditions: clear
Temperature: 53.8 F (12.1 C)
Dew Point: 37.6 F (3.1 C)
Relative Humidity: 54%
Pressure (altimeter): 30.39 in. Hg (1029 hPa)
ob: KMOP 231455Z AUTO 00000KT 10SM CLR 12/03 A3039 RMK AO2 T01210031
cycle: 15

Station Type Date Time Source
KMOP TAF UTC NOAA

Error!

Example: see airport list